Time;durP1;ratioP1;P1;durP2;ratioP2;P2;SDS_P1;SDS_P2;PMS_P1;PMS_P2;Temp;Humidity;BMP_temperature;BMP_pressure;BME280_temperature;BME280_humidity;BME280_pressure;Samples;Min_cycle;Max_cycle;Signal;HPM_P1;HPM_P2
2023/07/15 00:01:12;;;;;;;5.43;2.30;;;21.00;81.10;;;;;;5015698;28;20053;-85
2023/07/15 00:03:37;;;;;;;3.60;1.92;;;21.00;81.00;;;;;;4997430;28;20036;-85
2023/07/15 00:06:05;;;;;;;3.70;2.03;;;21.00;81.00;;;;;;5014579;28;20034;-85
2023/07/15 00:08:31;;;;;;;4.30;2.40;;;21.00;81.00;;;;;;5014868;28;20018;-85
2023/07/15 00:10:56;;;;;;;4.25;2.15;;;21.00;80.80;;;;;;5014908;28;20037;-85
2023/07/15 00:13:22;;;;;;;3.47;2.10;;;21.10;80.80;;;;;;4996920;28;20029;-85
2023/07/15 00:15:53;;;;;;;4.15;2.30;;;21.10;80.80;;;;;;4996261;28;20038;-85
2023/07/15 00:18:19;;;;;;;4.38;2.05;;;21.10;80.80;;;;;;4999298;28;20026;-85
2023/07/15 00:20:45;;;;;;;3.28;1.92;;;21.10;80.70;;;;;;5013534;28;20445;-85
2023/07/15 00:23:17;;;;;;;3.50;1.90;;;21.10;80.70;;;;;;5017764;28;20018;-85
2023/07/15 00:25:42;;;;;;;3.67;2.10;;;21.10;80.70;;;;;;5016572;28;20065;-85
2023/07/15 00:28:08;;;;;;;4.10;2.10;;;21.10;80.70;;;;;;5016235;28;20022;-85
2023/07/15 00:30:33;;;;;;;3.58;2.10;;;21.10;80.80;;;;;;5017833;28;20455;-84
2023/07/15 00:32:59;;;;;;;3.83;2.15;;;21.10;80.90;;;;;;5016462;28;20026;-85
2023/07/15 00:35:28;;;;;;;4.47;2.13;;;21.10;80.90;;;;;;5017299;28;20062;-85
2023/07/15 00:37:58;;;;;;;4.20;2.20;;;21.10;80.80;;;;;;5016288;28;20084;-85
2023/07/15 00:40:25;;;;;;;3.33;1.98;;;21.10;80.90;;;;;;5015407;28;20049;-85
2023/07/15 00:42:51;;;;;;;3.70;2.10;;;21.00;81.00;;;;;;5015755;28;20608;-85
2023/07/15 00:45:16;;;;;;;3.97;1.90;;;21.00;81.10;;;;;;5014987;28;20022;-85
2023/07/15 00:47:54;;;;;;;3.50;1.88;;;21.00;81.20;;;;;;5015320;28;20509;-85
2023/07/15 00:50:20;;;;;;;4.40;2.35;;;21.00;81.20;;;;;;5005474;28;20540;-85
2023/07/15 00:52:45;;;;;;;3.75;2.20;;;21.00;81.20;;;;;;4999294;28;20026;-85
2023/07/15 00:55:11;;;;;;;3.80;2.20;;;21.00;81.20;;;;;;5016178;28;20088;-85
2023/07/15 00:57:37;;;;;;;3.60;2.10;;;20.90;81.20;;;;;;4998488;28;20122;-85
2023/07/15 01:00:09;;;;;;;4.05;2.08;;;20.90;81.20;;;;;;4998507;28;20030;-84
2023/07/15 01:02:35;;;;;;;4.28;2.00;;;20.90;81.20;;;;;;4998617;28;20022;-85
2023/07/15 01:05:00;;;;;;;3.92;1.90;;;20.90;81.20;;;;;;4998237;28;20026;-85
2023/07/15 01:07:26;;;;;;;3.72;2.17;;;20.90;81.20;;;;;;5016245;28;20037;-85
2023/07/15 01:09:52;;;;;;;3.58;2.00;;;20.90;81.20;;;;;;5015900;28;20018;-85
2023/07/15 01:12:18;;;;;;;4.72;2.10;;;20.90;81.20;;;;;;5015771;28;20018;-85
2023/07/15 01:14:44;;;;;;;3.67;1.95;;;20.90;81.20;;;;;;4994635;28;20104;-85
2023/07/15 01:17:09;;;;;;;4.00;2.10;;;20.90;81.20;;;;;;4996199;28;20019;-85
2023/07/15 01:19:35;;;;;;;3.42;1.88;;;20.90;81.20;;;;;;5001720;28;20018;-84
2023/07/15 01:22:02;;;;;;;3.95;2.35;;;20.90;81.20;;;;;;5014310;28;20116;-85
2023/07/15 01:24:27;;;;;;;3.88;2.00;;;20.90;81.20;;;;;;5007440;28;20125;-86
2023/07/15 01:27:05;;;;;;;3.97;2.20;;;20.90;81.20;;;;;;5024601;28;20054;-86
2023/07/15 01:29:31;;;;;;;3.95;2.20;;;20.90;81.20;;;;;;5011003;28;20048;-86
2023/07/15 01:31:56;;;;;;;5.10;2.08;;;20.90;81.20;;;;;;5014439;28;20410;-86
2023/07/15 01:34:22;;;;;;;4.47;2.25;;;21.00;81.30;;;;;;5005121;28;20046;-86
2023/07/15 01:36:48;;;;;;;3.38;2.00;;;21.00;81.30;;;;;;5002674;28;20026;-85
2023/07/15 01:39:15;;;;;;;4.40;2.30;;;21.00;81.30;;;;;;5004870;28;20606;-85
2023/07/15 01:41:41;;;;;;;3.22;2.00;;;21.00;81.20;;;;;;5022771;28;20033;-85
2023/07/15 01:44:06;;;;;;;4.50;2.10;;;21.00;81.20;;;;;;5004875;28;20026;-85
2023/07/15 01:46:34;;;;;;;3.17;1.75;;;21.10;81.10;;;;;;5003136;28;20049;-86
2023/07/15 01:49:02;;;;;;;3.63;2.00;;;21.10;81.10;;;;;;4989100;28;20026;-86
2023/07/15 01:51:28;;;;;;;3.58;1.90;;;21.10;81.00;;;;;;5023737;28;20037;-85
2023/07/15 01:53:54;;;;;;;3.58;1.95;;;21.00;80.90;;;;;;5023734;28;20029;-85
2023/07/15 01:56:21;;;;;;;4.13;2.25;;;21.10;81.00;;;;;;5008647;28;20049;-85
2023/07/15 01:58:48;;;;;;;4.45;1.92;;;21.10;81.00;;;;;;5005316;28;20037;-86
2023/07/15 02:01:13;;;;;;;3.75;2.10;;;21.00;81.00;;;;;;5022818;28;20022;-85
2023/07/15 02:03:39;;;;;;;3.70;1.90;;;21.10;81.10;;;;;;5004591;28;20045;-85
2023/07/15 02:06:05;;;;;;;3.65;1.98;;;21.10;81.20;;;;;;5003755;28;20034;-85
2023/07/15 02:08:32;;;;;;;3.47;2.00;;;21.00;81.30;;;;;;5000224;28;20473;-85
2023/07/15 02:10:58;;;;;;;3.20;1.85;;;21.00;81.30;;;;;;4998066;28;20030;-85
2023/07/15 02:13:24;;;;;;;3.35;2.03;;;21.00;81.30;;;;;;5021374;28;20036;-85
2023/07/15 02:15:50;;;;;;;3.92;2.03;;;21.00;81.40;;;;;;5021060;28;20029;-85
2023/07/15 02:18:15;;;;;;;3.97;2.17;;;21.00;81.50;;;;;;5000960;28;20490;-85
2023/07/15 02:20:41;;;;;;;4.13;1.92;;;20.90;81.40;;;;;;5014075;28;20030;-85
2023/07/15 02:23:09;;;;;;;3.42;2.08;;;20.90;81.40;;;;;;5002398;28;20029;-86
2023/07/15 02:25:34;;;;;;;4.18;2.20;;;20.90;81.40;;;;;;5001508;28;20025;-85
2023/07/15 02:28:00;;;;;;;3.72;1.95;;;21.00;81.40;;;;;;5003003;28;20030;-85
2023/07/15 02:30:26;;;;;;;4.07;2.20;;;20.90;81.30;;;;;;5001552;28;20394;-85
2023/07/15 02:32:54;;;;;;;3.22;2.03;;;20.90;81.40;;;;;;5001040;28;20118;-85
2023/07/15 02:35:20;;;;;;;3.58;1.83;;;20.90;81.40;;;;;;4996777;28;20486;-85
2023/07/15 02:37:48;;;;;;;3.65;2.13;;;20.90;81.30;;;;;;4997253;28;20041;-85
2023/07/15 02:40:14;;;;;;;3.13;1.83;;;20.90;81.30;;;;;;4996308;28;20062;-85
2023/07/15 02:42:40;;;;;;;4.80;2.20;;;20.90;81.30;;;;;;4996761;28;20487;-85
2023/07/15 02:45:08;;;;;;;3.53;2.00;;;20.90;81.20;;;;;;5017335;28;20101;-85
2023/07/15 02:47:34;;;;;;;3.42;1.70;;;20.80;81.10;;;;;;4999748;28;20058;-85
2023/07/15 02:50:05;;;;;;;3.58;2.00;;;20.90;81.20;;;;;;5000131;28;20022;-85
2023/07/15 02:52:32;;;;;;;3.22;1.98;;;20.90;81.10;;;;;;4999528;28;20490;-85
2023/07/15 02:54:59;;;;;;;4.10;2.00;;;20.90;81.10;;;;;;4999038;28;20030;-85
2023/07/15 02:57:24;;;;;;;3.30;1.90;;;20.90;81.10;;;;;;4998885;28;20022;-85
2023/07/15 02:59:50;;;;;;;2.78;1.80;;;20.90;81.10;;;;;;4998757;28;20022;-85
2023/07/15 03:02:15;;;;;;;3.20;1.80;;;20.90;81.30;;;;;;4998370;28;20029;-85
2023/07/15 03:04:41;;;;;;;4.90;1.90;;;20.90;81.30;;;;;;4998308;28;20390;-85
2023/07/15 03:07:09;;;;;;;3.60;1.80;;;20.90;81.30;;;;;;4998726;28;20034;-85
2023/07/15 03:09:35;;;;;;;3.55;2.00;;;21.00;81.40;;;;;;4983093;28;20032;-85
2023/07/15 03:12:00;;;;;;;3.20;1.92;;;21.00;81.30;;;;;;4978769;28;20022;-84
2023/07/15 03:14:26;;;;;;;3.78;1.80;;;21.00;81.20;;;;;;4996273;28;20058;-85
2023/07/15 03:16:51;;;;;;;3.10;1.80;;;21.00;81.20;;;;;;4994590;28;20080;-85
2023/07/15 03:19:17;;;;;;;3.05;1.52;;;21.00;81.60;;;;;;4982930;28;20021;-85
2023/07/15 03:21:42;;;;;;;3.13;1.92;;;21.00;81.00;;;;;;5005745;28;20025;-85
2023/07/15 03:24:08;;;;;;;3.08;1.95;;;21.00;80.90;;;;;;5015324;28;20494;-82
2023/07/15 03:26:34;;;;;;;3.55;2.00;;;21.00;80.90;;;;;;5008841;28;20076;-85
2023/07/15 03:29:00;;;;;;;4.10;2.20;;;21.10;81.00;;;;;;5005591;28;20025;-85
2023/07/15 03:31:26;;;;;;;3.35;1.70;;;21.10;80.90;;;;;;4978051;28;20030;-85
2023/07/15 03:33:53;;;;;;;3.65;2.08;;;21.10;80.90;;;;;;4993724;28;20033;-85
2023/07/15 03:36:18;;;;;;;3.42;1.92;;;21.10;81.00;;;;;;5010218;28;20109;-85
2023/07/15 03:38:44;;;;;;;3.28;2.00;;;21.00;80.90;;;;;;5014504;28;20184;-85
2023/07/15 03:41:09;;;;;;;3.90;2.17;;;21.00;81.20;;;;;;4996220;28;20068;-85
2023/07/15 03:43:35;;;;;;;2.78;1.80;;;21.00;81.30;;;;;;5004209;28;20105;-85
2023/07/15 03:46:00;;;;;;;2.92;1.80;;;21.00;81.30;;;;;;4992479;28;20022;-85
2023/07/15 03:48:26;;;;;;;3.72;2.10;;;21.00;81.30;;;;;;5013981;28;20026;-85
2023/07/15 03:50:52;;;;;;;3.53;1.83;;;21.00;81.30;;;;;;5007718;28;20033;-84
2023/07/15 03:53:17;;;;;;;3.45;2.08;;;20.90;81.30;;;;;;5003831;28;20549;-85
2023/07/15 03:55:43;;;;;;;3.40;1.88;;;20.90;81.40;;;;;;5003404;28;20026;-85
2023/07/15 03:58:09;;;;;;;3.05;1.80;;;20.90;81.40;;;;;;5013654;28;20033;-85
2023/07/15 04:00:34;;;;;;;3.22;1.67;;;20.90;81.40;;;;;;5013586;28;20056;-84
2023/07/15 04:03:01;;;;;;;2.92;1.75;;;20.90;81.40;;;;;;5000647;28;20487;-85
2023/07/15 04:05:27;;;;;;;4.20;1.88;;;20.90;81.40;;;;;;5004572;28;20030;-85
2023/07/15 04:07:53;;;;;;;3.35;1.98;;;20.90;81.40;;;;;;4985523;28;20023;-85
2023/07/15 04:10:19;;;;;;;3.65;2.00;;;20.90;81.40;;;;;;4993684;28;20023;-85
2023/07/15 04:12:44;;;;;;;3.40;1.70;;;20.90;81.40;;;;;;4985429;28;20026;-85
2023/07/15 04:15:10;;;;;;;3.03;1.80;;;20.90;81.40;;;;;;4988867;28;20030;-84
2023/07/15 04:17:35;;;;;;;3.08;1.88;;;20.90;81.40;;;;;;4999523;28;20440;-84
2023/07/15 04:20:07;;;;;;;2.60;1.70;;;20.90;81.50;;;;;;4994727;28;20049;-83
2023/07/15 04:22:37;;;;;;;3.97;2.15;;;20.90;81.40;;;;;;4994269;28;20029;-84
2023/07/15 04:25:02;;;;;;;3.15;1.70;;;20.90;81.50;;;;;;4994996;28;20561;-84
2023/07/15 04:27:28;;;;;;;3.17;1.80;;;20.90;81.40;;;;;;5013104;28;20065;-84
2023/07/15 04:29:53;;;;;;;3.13;1.83;;;20.90;81.30;;;;;;4993526;28;20434;-84
2023/07/15 04:32:19;;;;;;;3.10;1.90;;;20.90;81.30;;;;;;4984047;28;20029;-84
2023/07/15 04:34:49;;;;;;;2.47;1.70;;;20.90;81.30;;;;;;4989293;28;20446;-84
2023/07/15 04:37:15;;;;;;;2.17;1.40;;;20.90;81.30;;;;;;4986816;28;20022;-85
2023/07/15 04:39:41;;;;;;;3.45;1.90;;;21.00;80.90;;;;;;5021484;28;20315;-85
2023/07/15 04:42:06;;;;;;;2.97;1.70;;;21.00;81.10;;;;;;5003674;28;20034;-85
2023/07/15 04:44:32;;;;;;;3.25;1.70;;;21.00;80.90;;;;;;5001347;28;20041;-85
2023/07/15 04:46:58;;;;;;;2.45;1.63;;;21.00;81.00;;;;;;5013771;28;20049;-85
2023/07/15 04:49:23;;;;;;;3.20;1.77;;;21.00;80.80;;;;;;4999645;28;20085;-85
2023/07/15 04:51:49;;;;;;;3.80;2.10;;;21.00;80.80;;;;;;5001828;28;20518;-85
2023/07/15 04:54:15;;;;;;;3.45;1.63;;;21.00;80.50;;;;;;5017828;28;20034;-85
2023/07/15 04:56:41;;;;;;;2.85;1.70;;;21.00;80.40;;;;;;5000399;28;20125;-85
2023/07/15 04:59:07;;;;;;;3.03;1.73;;;21.10;80.50;;;;;;5018089;28;20053;-85
2023/07/15 05:01:33;;;;;;;3.50;1.92;;;21.10;80.20;;;;;;5020090;28;20026;-85
2023/07/15 05:04:01;;;;;;;3.00;1.60;;;21.10;80.30;;;;;;5021146;28;20022;-85
2023/07/15 05:06:28;;;;;;;3.92;2.22;;;21.10;80.30;;;;;;5001009;28;20494;-85
2023/07/15 05:08:53;;;;;;;3.45;1.83;;;21.10;80.20;;;;;;5006077;28;20478;-85
2023/07/15 05:11:19;;;;;;;3.17;1.70;;;21.00;80.30;;;;;;5006298;28;20064;-85
2023/07/15 05:13:46;;;;;;;3.22;1.70;;;21.00;80.50;;;;;;5004833;28;20391;-85
2023/07/15 05:16:12;;;;;;;2.88;1.77;;;21.10;80.70;;;;;;4999792;28;20030;-85
2023/07/15 05:18:38;;;;;;;3.38;1.98;;;21.00;80.90;;;;;;4992869;28;20025;-85
2023/07/15 05:21:03;;;;;;;2.92;1.70;;;21.00;81.00;;;;;;5004039;28;20121;-85
2023/07/15 05:23:31;;;;;;;9.38;2.00;;;21.00;81.00;;;;;;5004827;28;20053;-87
2023/07/15 05:26:00;;;;;;;2.50;1.55;;;21.00;81.00;;;;;;4999603;28;20030;-86
2023/07/15 05:28:30;;;;;;;2.83;1.65;;;21.00;81.10;;;;;;4996474;28;20112;-84
2023/07/15 05:31:00;;;;;;;3.72;1.85;;;21.00;81.10;;;;;;5003697;28;20042;-85
2023/07/15 05:33:26;;;;;;;3.10;1.63;;;21.00;81.00;;;;;;5014841;28;20037;-84
2023/07/15 05:35:53;;;;;;;2.60;1.70;;;21.00;81.10;;;;;;4994222;28;20053;-85
2023/07/15 05:38:24;;;;;;;2.53;1.70;;;21.00;81.10;;;;;;4995897;28;20371;-84
2023/07/15 05:40:50;;;;;;;;;;;21.00;81.10;;;;;;4997911;28;20022;-84
2023/07/15 05:43:15;;;;;;;2.92;1.70;;;21.00;81.20;;;;;;5015418;28;19916;-85
2023/07/15 05:45:41;;;;;;;3.65;1.90;;;21.00;81.10;;;;;;4997323;28;20108;-84
2023/07/15 05:48:06;;;;;;;3.22;1.75;;;21.00;81.20;;;;;;4997543;28;20030;-85
2023/07/15 05:50:36;;;;;;;3.55;1.70;;;21.00;81.10;;;;;;4980560;28;20045;-85
2023/07/15 05:53:05;;;;;;;3.28;1.60;;;21.00;81.10;;;;;;4978004;28;20117;-85
2023/07/15 05:55:34;;;;;;;2.67;1.70;;;21.00;81.10;;;;;;4986308;28;20406;-85
2023/07/15 05:58:01;;;;;;;2.90;1.60;;;21.00;81.10;;;;;;5015551;28;20121;-84
2023/07/15 06:00:27;;;;;;;3.60;1.60;;;21.00;81.10;;;;;;4997315;28;20375;-84
2023/07/15 06:02:52;;;;;;;2.33;1.48;;;21.00;81.20;;;;;;5014838;28;20029;-84
2023/07/15 06:05:18;;;;;;;2.72;1.60;;;21.10;81.20;;;;;;5006880;28;20137;-84
2023/07/15 06:07:48;;;;;;;4.10;1.70;;;21.00;81.00;;;;;;4997529;28;20022;-83
2023/07/15 06:10:14;;;;;;;4.22;1.70;;;21.10;81.30;;;;;;4997964;28;20026;-83
2023/07/15 06:12:39;;;;;;;2.78;1.60;;;21.10;81.10;;;;;;4998212;28;20112;-84
2023/07/15 06:15:05;;;;;;;3.38;1.67;;;21.10;80.90;;;;;;4996782;28;20561;-83
2023/07/15 06:17:31;;;;;;;3.80;1.55;;;21.20;80.90;;;;;;4994608;28;20022;-85
2023/07/15 06:19:56;;;;;;;3.00;1.60;;;21.30;80.80;;;;;;4995260;28;20517;-84
2023/07/15 06:22:22;;;;;;;2.60;1.70;;;21.20;80.70;;;;;;4978433;28;20154;-85
2023/07/15 06:24:47;;;;;;;2.05;1.40;;;21.20;80.50;;;;;;5001093;28;20022;-84
2023/07/15 06:27:13;;;;;;;3.17;1.90;;;21.20;80.50;;;;;;4998020;28;20608;-85
2023/07/15 06:29:38;;;;;;;2.63;1.50;;;21.20;80.60;;;;;;5016044;28;20545;-85
2023/07/15 06:32:04;;;;;;;2.40;1.50;;;21.30;80.50;;;;;;4998667;28;20077;-85
2023/07/15 06:34:31;;;;;;;2.25;1.55;;;21.30;80.40;;;;;;4998577;28;20072;-86
2023/07/15 06:36:57;;;;;;;2.40;1.40;;;21.30;80.40;;;;;;4998960;28;20568;-85
2023/07/15 06:39:23;;;;;;;2.20;1.50;;;21.30;80.40;;;;;;4997552;28;20399;-83
2023/07/15 06:41:50;;;;;;;3.00;1.70;;;21.40;80.40;;;;;;4998002;28;20033;-81
2023/07/15 06:44:15;;;;;;;2.47;1.50;;;21.30;80.40;;;;;;5013383;28;20034;-83
2023/07/15 06:46:41;;;;;;;2.80;1.50;;;21.30;80.50;;;;;;4997955;28;20056;-84
2023/07/15 06:49:07;;;;;;;2.83;1.65;;;21.20;80.60;;;;;;5009526;28;20032;-84
2023/07/15 06:51:32;;;;;;;3.50;1.40;;;21.30;80.70;;;;;;4993369;28;20030;-84
2023/07/15 06:53:58;;;;;;;2.85;1.67;;;21.20;80.60;;;;;;5012212;28;20433;-84
2023/07/15 06:56:23;;;;;;;2.17;1.40;;;21.20;80.60;;;;;;4993940;28;20065;-83
2023/07/15 06:58:49;;;;;;;2.25;1.50;;;21.20;80.60;;;;;;4994273;28;20062;-84
2023/07/15 07:01:14;;;;;;;2.40;1.52;;;21.20;80.60;;;;;;4994442;28;20029;-84
2023/07/15 07:03:40;;;;;;;1.83;1.40;;;21.30;80.70;;;;;;4994662;28;20117;-84
2023/07/15 07:06:05;;;;;;;2.17;1.45;;;21.30;80.70;;;;;;4993521;28;20450;-83
2023/07/15 07:08:31;;;;;;;2.58;1.50;;;21.20;80.70;;;;;;4994413;28;20030;-84
2023/07/15 07:10:56;;;;;;;2.35;1.50;;;21.30;80.80;;;;;;4994400;28;20416;-83
2023/07/15 07:13:24;;;;;;;2.28;1.48;;;21.20;80.70;;;;;;5012446;28;20041;-83
2023/07/15 07:15:50;;;;;;;3.10;1.45;;;21.30;81.30;;;;;;5068687;23;20049;-83
2023/07/15 07:18:15;;;;;;;2.47;1.45;;;21.30;80.70;;;;;;5067276;28;20385;-82
2023/07/15 07:20:42;;;;;;;1.80;1.27;;;21.30;80.70;;;;;;5066459;28;20127;-83
2023/07/15 07:23:10;;;;;;;2.55;1.33;;;21.30;80.70;;;;;;5051548;28;20025;-83
2023/07/15 07:25:35;;;;;;;2.72;1.50;;;21.30;80.80;;;;;;5041264;28;20022;-82
2023/07/15 07:28:01;;;;;;;2.75;1.52;;;21.30;80.60;;;;;;5029982;28;20033;-83
2023/07/15 07:30:27;;;;;;;2.30;1.40;;;21.30;80.60;;;;;;5029546;28;20025;-82
2023/07/15 07:32:52;;;;;;;1.88;1.38;;;21.40;80.60;;;;;;5030032;28;20025;-83
2023/07/15 07:35:18;;;;;;;1.95;1.40;;;21.40;80.50;;;;;;5029632;28;20052;-83
2023/07/15 07:37:44;;;;;;;2.45;1.50;;;21.40;80.50;;;;;;5030408;28;20033;-84
2023/07/15 07:40:10;;;;;;;2.35;1.50;;;21.40;80.50;;;;;;5033324;28;20075;-83
2023/07/15 07:42:35;;;;;;;2.85;1.70;;;21.40;80.50;;;;;;5035530;28;20021;-83
2023/07/15 07:45:11;;;;;;;1.88;1.40;;;21.50;80.50;;;;;;5032397;28;20022;-84
2023/07/15 07:47:36;;;;;;;2.53;1.60;;;21.50;80.40;;;;;;5031288;28;20040;-83
2023/07/15 07:50:02;;;;;;;2.97;1.58;;;21.50;80.30;;;;;;5033008;28;20482;-84
2023/07/15 07:52:27;;;;;;;2.40;1.45;;;21.60;80.20;;;;;;5036190;28;20079;-81
2023/07/15 07:54:53;;;;;;;2.00;1.30;;;21.60;80.20;;;;;;5037113;28;20030;-84
2023/07/15 07:57:18;;;;;;;2.15;1.45;;;21.60;80.10;;;;;;5039274;28;20022;-85
2023/07/15 07:59:44;;;;;;;2.40;1.42;;;21.60;79.90;;;;;;5039139;28;20035;-86
2023/07/15 08:02:09;;;;;;;2.75;1.40;;;21.60;79.80;;;;;;5054786;28;20367;-85
2023/07/15 08:04:35;;;;;;;2.28;1.45;;;21.70;79.80;;;;;;5037545;28;20044;-86
2023/07/15 08:07:00;;;;;;;3.08;1.60;;;21.70;79.80;;;;;;5054621;28;20044;-85
2023/07/15 08:09:26;;;;;;;2.40;1.40;;;21.70;79.70;;;;;;5037635;28;20026;-85
2023/07/15 08:11:51;;;;;;;2.00;1.30;;;21.70;79.70;;;;;;5038930;28;20023;-85
2023/07/15 08:14:18;;;;;;;1.75;1.30;;;21.80;79.70;;;;;;5038897;28;20184;-85
2023/07/15 08:16:43;;;;;;;2.45;1.45;;;21.80;79.80;;;;;;5055599;28;20038;-85
2023/07/15 08:19:09;;;;;;;2.40;1.30;;;21.70;79.80;;;;;;5040008;28;20025;-85
2023/07/15 08:21:35;;;;;;;2.08;1.40;;;21.80;79.90;;;;;;5038271;28;20044;-85
2023/07/15 08:24:00;;;;;;;2.10;1.30;;;21.70;79.90;;;;;;5037522;28;20032;-85
2023/07/15 08:26:26;;;;;;;1.90;1.40;;;21.70;80.00;;;;;;5037644;28;20029;-85
2023/07/15 08:28:52;;;;;;;2.53;1.50;;;21.70;80.00;;;;;;5038558;28;20025;-86
2023/07/15 08:31:17;;;;;;;2.53;1.38;;;21.70;80.10;;;;;;5036652;28;20595;-87
2023/07/15 08:33:43;;;;;;;2.03;1.30;;;21.80;80.10;;;;;;5037084;28;20116;-86
2023/07/15 08:36:09;;;;;;;2.55;1.50;;;21.80;80.10;;;;;;5038208;28;20025;-86
2023/07/15 08:38:35;;;;;;;1.92;1.20;;;21.80;80.10;;;;;;5037127;28;20044;-85
2023/07/15 08:41:01;;;;;;;2.10;1.40;;;21.70;80.00;;;;;;5056516;28;20025;-87
2023/07/15 08:43:29;;;;;;;2.28;1.40;;;21.80;80.00;;;;;;5039934;28;20030;-86
2023/07/15 08:46:04;;;;;;;2.70;1.70;;;21.80;80.00;;;;;;5039242;28;20025;-85
2023/07/15 08:48:30;;;;;;;2.65;1.40;;;21.80;80.00;;;;;;5039368;28;20548;-85
2023/07/15 08:50:57;;;;;;;1.77;1.25;;;21.80;80.00;;;;;;5055655;28;20025;-86
2023/07/15 08:53:28;;;;;;;2.45;1.40;;;21.80;80.00;;;;;;5039333;28;20405;-87
2023/07/15 08:55:57;;;;;;;2.28;1.30;;;21.80;80.10;;;;;;5039738;28;20147;-85
2023/07/15 08:58:24;;;;;;;1.85;1.20;;;21.70;80.30;;;;;;5039524;28;20029;-85
2023/07/15 09:00:50;;;;;;;2.60;1.23;;;21.70;80.30;;;;;;5037325;28;20045;-85
2023/07/15 09:03:16;;;;;;;2.60;1.30;;;21.70;80.40;;;;;;5037191;28;20036;-85
2023/07/15 09:05:43;;;;;;;2.47;1.30;;;21.70;80.60;;;;;;5038566;28;20024;-85
2023/07/15 09:08:12;;;;;;;1.55;1.20;;;21.70;80.60;;;;;;5039032;28;20105;-85
2023/07/15 09:10:50;;;;;;;1.98;1.20;;;21.70;80.60;;;;;;5036663;28;20120;-85
2023/07/15 09:13:22;;;;;;;2.05;1.33;;;21.70;80.60;;;;;;5036887;28;20565;-85
2023/07/15 09:15:47;;;;;;;2.05;1.38;;;21.80;80.50;;;;;;5036447;28;20137;-85
2023/07/15 09:18:14;;;;;;;1.90;1.20;;;21.80;80.30;;;;;;5038090;28;20080;-85
2023/07/15 09:20:40;;;;;;;2.08;1.45;;;21.80;80.20;;;;;;5052883;28;20025;-86
2023/07/15 09:23:06;;;;;;;2.50;1.30;;;21.90;80.00;;;;;;5036173;28;20113;-85
2023/07/15 09:25:31;;;;;;;2.05;1.33;;;21.90;80.00;;;;;;5035721;28;20124;-85
2023/07/15 09:27:57;;;;;;;1.80;1.10;;;21.90;79.90;;;;;;5035642;28;20033;-85
2023/07/15 09:30:23;;;;;;;2.03;1.30;;;21.90;79.90;;;;;;5037153;28;20025;-85
2023/07/15 09:32:49;;;;;;;2.63;1.42;;;21.90;79.90;;;;;;5036594;28;20022;-86
2023/07/15 09:35:15;;;;;;;1.40;1.10;;;21.90;80.00;;;;;;5036803;28;20092;-83
2023/07/15 09:37:40;;;;;;;2.20;1.40;;;21.90;80.00;;;;;;5036003;28;20025;-84
2023/07/15 09:40:08;;;;;;;2.53;1.45;;;21.90;80.10;;;;;;5036258;28;20022;-85
2023/07/15 09:42:54;;;;;;;2.17;1.40;;;21.80;80.20;;;;;;5037377;28;20123;-84
2023/07/15 09:45:32;;;;;;;2.38;1.40;;;21.90;80.30;;;;;;5037248;28;20104;-86
2023/07/15 09:47:58;;;;;;;1.70;1.30;;;21.80;80.40;;;;;;5052040;28;20371;-84
2023/07/15 09:50:24;;;;;;;1.88;1.33;;;21.80;80.50;;;;;;5036645;28;20033;-86
2023/07/15 09:52:53;;;;;;;3.67;1.50;;;21.70;80.40;;;;;;5035982;28;20120;-85
2023/07/15 09:55:20;;;;;;;2.10;1.17;;;21.70;80.50;;;;;;5035448;28;20017;-81
2023/07/15 09:57:48;;;;;;;1.98;1.30;;;21.70;80.70;;;;;;5035210;28;20022;-85
2023/07/15 10:00:15;;;;;;;2.50;1.38;;;21.70;80.70;;;;;;5035378;28;20053;-86
2023/07/15 10:02:43;;;;;;;6.25;1.58;;;21.70;80.70;;;;;;5050339;28;20026;-85
2023/07/15 10:05:13;;;;;;;2.92;1.42;;;21.70;80.80;;;;;;5045471;28;20051;-85
2023/07/15 10:07:40;;;;;;;2.75;1.40;;;22.40;81.30;;;;;;5047399;28;20021;-86
2023/07/15 10:10:08;;;;;;;1.70;1.20;;;21.70;81.00;;;;;;5044172;28;20021;-85
2023/07/15 10:12:34;;;;;;;2.92;1.33;;;21.70;81.00;;;;;;5040554;28;20025;-86
2023/07/15 10:15:02;;;;;;;3.72;1.48;;;21.60;81.10;;;;;;5042602;28;20045;-85
2023/07/15 10:17:37;;;;;;;2.63;1.40;;;21.90;81.30;;;;;;5042768;28;20060;-85
2023/07/15 10:20:12;;;;;;;3.90;1.23;;;21.60;81.30;;;;;;5042290;28;20096;-84
2023/07/15 10:22:39;;;;;;;2.72;1.40;;;21.60;81.40;;;;;;5034541;28;20029;-85
2023/07/15 10:25:08;;;;;;;2.80;1.15;;;21.50;81.30;;;;;;5035680;28;20393;-85
2023/07/15 10:27:34;;;;;;;2.92;1.30;;;21.60;81.50;;;;;;5035357;28;20071;-85
2023/07/15 10:30:23;;;;;;;1.70;1.20;;;21.60;81.60;;;;;;5035211;28;20116;-85
2023/07/15 10:33:01;;;;;;;2.47;1.30;;;21.50;81.60;;;;;;5035294;28;20445;-84
2023/07/15 10:35:34;;;;;;;1.85;1.30;;;21.50;81.70;;;;;;5035798;28;20072;-84
2023/07/15 10:38:24;;;;;;;2.95;1.40;;;21.50;81.70;;;;;;5035515;28;20100;-84
2023/07/15 10:41:02;;;;;;;2.78;1.27;;;21.50;81.80;;;;;;5034613;28;20036;-84
2023/07/15 10:43:34;;;;;;;1.80;1.10;;;21.50;81.90;;;;;;5033613;28;20079;-84
2023/07/15 10:46:05;;;;;;;2.55;1.35;;;21.50;81.90;;;;;;5035741;28;20371;-84
2023/07/15 10:48:30;;;;;;;2.30;1.40;;;21.50;82.00;;;;;;5051903;28;20025;-84
2023/07/15 10:50:59;;;;;;;1.70;1.17;;;21.50;81.90;;;;;;5052165;28;20042;-84
2023/07/15 10:53:26;;;;;;;2.15;1.30;;;21.50;81.90;;;;;;5035751;28;20041;-84
2023/07/15 10:56:09;;;;;;;2.30;1.27;;;21.60;81.90;;;;;;5052516;28;20034;-84
2023/07/15 10:58:35;;;;;;;2.45;1.30;;;21.60;81.80;;;;;;5051120;28;20036;-84
2023/07/15 11:01:04;;;;;;;1.98;1.20;;;21.60;81.80;;;;;;5033991;28;20021;-85
2023/07/15 11:03:38;;;;;;;3.05;1.52;;;21.60;81.90;;;;;;5038412;28;20024;-84
2023/07/15 11:06:04;;;;;;;2.25;1.40;;;21.60;81.80;;;;;;5039270;28;20029;-85
2023/07/15 11:08:31;;;;;;;2.35;1.40;;;21.60;81.90;;;;;;5037749;28;20024;-86
2023/07/15 11:11:01;;;;;;;2.45;1.30;;;21.70;82.00;;;;;;5038074;28;20049;-84
2023/07/15 11:13:27;;;;;;;2.63;1.20;;;21.60;81.90;;;;;;5055615;28;20022;-84
2023/07/15 11:15:53;;;;;;;2.08;1.30;;;21.50;81.90;;;;;;5039038;28;20037;-85
2023/07/15 11:18:21;;;;;;;3.00;1.30;;;21.50;82.00;;;;;;5053783;28;20025;-85
2023/07/15 11:20:48;;;;;;;2.40;1.40;;;21.50;82.10;;;;;;5037164;28;20030;-85
2023/07/15 11:23:14;;;;;;;2.13;1.30;;;21.50;82.20;;;;;;5037935;28;20021;-85
2023/07/15 11:25:40;;;;;;;3.15;1.30;;;21.50;82.30;;;;;;5038641;28;20115;-85
2023/07/15 11:28:06;;;;;;;2.08;1.30;;;21.50;82.40;;;;;;5037108;28;20445;-85
2023/07/15 11:30:36;;;;;;;2.03;1.20;;;21.40;82.40;;;;;;5037712;28;20057;-85
2023/07/15 11:33:03;;;;;;;2.22;1.23;;;21.40;82.50;;;;;;5038750;28;20030;-84
2023/07/15 11:35:33;;;;;;;2.55;1.30;;;21.40;82.60;;;;;;5036895;28;20030;-84
2023/07/15 11:38:07;;;;;;;2.88;1.38;;;21.40;82.70;;;;;;5055172;28;20029;-84
2023/07/15 11:40:35;;;;;;;2.15;1.30;;;21.40;82.70;;;;;;5038695;28;20083;-84
2023/07/15 11:43:00;;;;;;;2.28;1.40;;;21.40;82.80;;;;;;5037759;28;20026;-84
2023/07/15 11:45:26;;;;;;;2.35;1.25;;;21.40;82.80;;;;;;5037478;28;20095;-85
2023/07/15 11:47:53;;;;;;;2.67;1.40;;;21.40;82.90;;;;;;5036938;28;20034;-85
2023/07/15 11:50:25;;;;;;;2.08;1.35;;;21.40;82.90;;;;;;5055360;28;20026;-84
2023/07/15 11:52:51;;;;;;;3.83;1.33;;;21.40;83.50;;;;;;5038040;28;20032;-85
2023/07/15 11:55:24;;;;;;;2.35;1.30;;;21.40;83.00;;;;;;5040678;28;20026;-85
2023/07/15 11:57:50;;;;;;;1.98;1.20;;;22.00;83.40;;;;;;5044078;28;20025;-85
2023/07/15 12:00:34;;;;;;;2.20;1.23;;;21.30;83.10;;;;;;5040410;28;20022;-84
2023/07/15 12:03:09;;;;;;;1.75;1.17;;;21.40;83.20;;;;;;5036837;28;20022;-83
2023/07/15 12:05:38;;;;;;;2.25;1.30;;;21.40;83.20;;;;;;5037107;28;20022;-84
2023/07/15 12:08:11;;;;;;;2.83;1.40;;;21.40;83.10;;;;;;5038239;28;20143;-85
2023/07/15 12:10:49;;;;;;;1.92;1.20;;;21.30;83.10;;;;;;5038784;28;20032;-84
2023/07/15 12:13:15;;;;;;;2.35;1.27;;;21.40;83.20;;;;;;5039344;28;20022;-85
2023/07/15 12:15:40;;;;;;;2.13;1.27;;;21.40;83.10;;;;;;5043697;28;20512;-85
2023/07/15 12:18:06;;;;;;;2.45;1.40;;;21.40;83.10;;;;;;5041965;28;20030;-84
2023/07/15 12:20:31;;;;;;;2.58;1.30;;;21.50;83.40;;;;;;5039335;28;20083;-84
2023/07/15 12:22:57;;;;;;;2.20;1.30;;;21.40;83.20;;;;;;5038468;28;20397;-83
2023/07/15 12:25:24;;;;;;;2.47;1.35;;;21.50;83.10;;;;;;5038109;28;20112;-84
2023/07/15 12:27:49;;;;;;;2.15;1.23;;;21.50;83.00;;;;;;5039446;28;20021;-84
2023/07/15 12:30:15;;;;;;;1.90;1.10;;;21.50;82.90;;;;;;5038507;28;20026;-85
2023/07/15 12:32:40;;;;;;;2.30;1.20;;;21.50;82.90;;;;;;5040356;28;20386;-83
2023/07/15 12:35:07;;;;;;;2.30;1.40;;;21.50;82.90;;;;;;5037891;28;20112;-84
2023/07/15 12:37:32;;;;;;;2.47;1.33;;;21.50;82.80;;;;;;5039469;28;20377;-85
2023/07/15 12:39:58;;;;;;;2.00;1.30;;;21.50;82.80;;;;;;5038280;28;20168;-85
2023/07/15 12:42:23;;;;;;;2.28;1.20;;;21.50;82.70;;;;;;5041586;28;20065;-85
2023/07/15 12:44:50;;;;;;;1.65;1.02;;;21.50;82.70;;;;;;5044891;28;20017;-85
2023/07/15 12:47:16;;;;;;;2.03;1.23;;;21.50;82.60;;;;;;5060170;28;20018;-84